createdAt,value
2023-05-17T00:00:57.620Z,12.18
2023-05-17T00:03:24.388Z,12.43
2023-05-17T00:05:51.140Z,13.63
2023-05-17T00:08:17.914Z,13.43
2023-05-17T00:10:44.726Z,14.43
2023-05-17T00:13:11.476Z,14.45
2023-05-17T00:15:38.289Z,14.20
2023-05-17T00:18:05.283Z,15.82
2023-05-17T00:20:32.079Z,15.82
2023-05-17T00:22:58.932Z,17.80
2023-05-17T00:25:25.959Z,16.15
2023-05-17T00:27:52.867Z,15.45
2023-05-17T00:30:19.603Z,17.63
2023-05-17T00:32:47.018Z,15.05
2023-05-17T00:35:14.153Z,15.02
2023-05-17T00:37:40.960Z,25.70
2023-05-17T00:40:08.466Z,28.08
2023-05-17T00:42:35.343Z,25.35
2023-05-17T00:45:02.143Z,21.38
2023-05-17T00:47:29.108Z,21.05
2023-05-17T00:49:55.903Z,20.58
2023-05-17T00:52:22.754Z,20.95
2023-05-17T00:54:49.775Z,21.85
2023-05-17T00:57:16.723Z,19.85
2023-05-17T00:59:44.620Z,17.42
2023-05-17T01:02:11.847Z,17.08
2023-05-17T01:04:39.001Z,16.15
2023-05-17T01:07:05.823Z,18.58
2023-05-17T01:09:32.620Z,16.17
2023-05-17T01:12:24.455Z,17.17
2023-05-17T01:14:53.664Z,15.93
2023-05-17T01:17:25.725Z,15.05
2023-05-17T01:20:01.417Z,16.13
2023-05-17T01:22:32.402Z,14.93
2023-05-17T01:25:13.084Z,14.18
2023-05-17T01:27:41.244Z,14.68
2023-05-17T01:30:09.054Z,15.15
2023-05-17T01:32:35.856Z,14.93
2023-05-17T01:35:05.536Z,14.02
2023-05-17T01:37:32.371Z,14.90
2023-05-17T01:39:59.121Z,15.18
2023-05-17T01:42:33.050Z,13.65
2023-05-17T01:47:49.744Z,12.25
2023-05-17T01:50:18.230Z,12.13
2023-05-17T01:52:46.431Z,15.82
2023-05-17T01:55:39.251Z,13.77
2023-05-17T01:58:07.531Z,13.82
2023-05-17T02:00:34.302Z,14.75
2023-05-17T02:03:01.127Z,15.07
2023-05-17T02:05:28.103Z,13.68
2023-05-17T02:07:55.001Z,14.77
2023-05-17T02:10:21.954Z,15.90
2023-05-17T02:12:48.682Z,13.40
2023-05-17T02:15:16.870Z,13.20
2023-05-17T02:17:43.715Z,15.07
2023-05-17T02:20:11.774Z,15.18
2023-05-17T02:22:38.944Z,13.10
2023-05-17T02:25:06.789Z,15.10
2023-05-17T02:27:33.541Z,14.98
2023-05-17T02:30:01.868Z,13.68
2023-05-17T02:32:29.167Z,13.77
2023-05-17T02:34:56.249Z,15.30
2023-05-17T02:37:22.989Z,14.32
2023-05-17T02:39:49.720Z,12.48
2023-05-17T02:42:16.496Z,14.93
2023-05-17T02:44:43.335Z,16.25
2023-05-17T02:47:10.108Z,13.25
2023-05-17T02:49:36.908Z,14.15
2023-05-17T02:52:03.854Z,13.10
2023-05-17T02:54:30.684Z,14.52
2023-05-17T02:56:57.401Z,12.52
2023-05-17T02:59:24.176Z,12.00
2023-05-17T03:01:50.970Z,12.63
2023-05-17T03:04:20.283Z,12.25
2023-05-17T03:06:47.219Z,10.90
2023-05-17T03:09:14.093Z,12.05
2023-05-17T03:11:40.814Z,11.38
2023-05-17T03:14:07.537Z,12.20
2023-05-17T03:16:34.290Z,11.73
2023-05-17T03:19:01.213Z,12.00
2023-05-17T03:21:28.159Z,11.30
2023-05-17T03:23:55.019Z,10.40
2023-05-17T03:26:23.027Z,11.57
2023-05-17T03:28:49.889Z,9.85
2023-05-17T03:31:17.535Z,11.07
2023-05-17T03:33:44.543Z,10.20
2023-05-17T03:36:11.407Z,10.38
2023-05-17T03:38:38.188Z,10.95
2023-05-17T03:41:04.931Z,10.63
2023-05-17T03:43:31.649Z,10.25
2023-05-17T03:45:58.471Z,9.07
2023-05-17T03:48:25.380Z,9.23
2023-05-17T03:50:52.192Z,10.15
2023-05-17T03:53:18.925Z,11.45
2023-05-17T03:55:45.712Z,10.18
2023-05-17T03:58:12.531Z,9.10
2023-05-17T04:00:39.239Z,9.73
2023-05-17T04:03:06.079Z,12.52
2023-05-17T04:05:32.969Z,9.48
2023-05-17T04:07:59.785Z,10.20
2023-05-17T04:10:26.572Z,9.98
2023-05-17T04:12:53.356Z,8.38
2023-05-17T04:15:21.289Z,9.75
2023-05-17T04:17:48.869Z,9.55
2023-05-17T04:20:15.819Z,9.32
2023-05-17T04:22:42.603Z,8.13
2023-05-17T04:25:09.571Z,9.23
2023-05-17T04:27:36.600Z,8.43
2023-05-17T04:30:04.397Z,9.73
2023-05-17T04:32:34.248Z,9.70
2023-05-17T04:35:01.284Z,8.77
2023-05-17T04:37:27.986Z,10.15
2023-05-17T04:39:54.750Z,7.90
2023-05-17T04:42:21.524Z,9.73
2023-05-17T04:44:50.333Z,8.77
2023-05-17T04:47:17.401Z,8.77
2023-05-17T04:49:44.123Z,7.82
2023-05-17T04:52:11.104Z,9.38
2023-05-17T04:54:37.824Z,8.35
2023-05-17T04:57:04.729Z,8.45
2023-05-17T04:59:31.465Z,8.70
2023-05-17T05:01:58.228Z,8.73
2023-05-17T05:04:25.614Z,7.15
2023-05-17T05:06:52.440Z,6.75
2023-05-17T05:09:19.360Z,8.73
2023-05-17T05:11:46.204Z,9.27
2023-05-17T05:14:12.931Z,7.13
2023-05-17T05:16:39.676Z,8.38
2023-05-17T05:19:06.836Z,7.88
2023-05-17T05:21:33.693Z,6.78
2023-05-17T05:24:00.538Z,7.32
2023-05-17T05:26:27.287Z,7.40
2023-05-17T05:28:53.996Z,7.18
2023-05-17T05:31:20.832Z,6.90
2023-05-17T05:33:47.905Z,7.25
2023-05-17T05:36:14.757Z,7.85
2023-05-17T05:38:41.479Z,8.02
2023-05-17T05:41:08.330Z,6.70
2023-05-17T05:43:36.229Z,7.70
2023-05-17T05:46:03.407Z,8.80
2023-05-17T05:48:30.199Z,5.85
2023-05-17T05:50:57.175Z,6.32
2023-05-17T05:53:23.935Z,6.75
2023-05-17T05:55:50.848Z,5.38
2023-05-17T05:58:17.586Z,10.55
2023-05-17T06:00:44.335Z,6.40
2023-05-17T06:03:11.448Z,6.10
2023-05-17T06:05:39.229Z,6.28
2023-05-17T06:08:06.768Z,5.93
2023-05-17T06:10:33.611Z,6.18
2023-05-17T06:13:01.978Z,5.05
2023-05-17T06:15:28.936Z,7.03
2023-05-17T06:17:55.807Z,6.07
2023-05-17T06:20:22.666Z,5.95
2023-05-17T06:22:49.387Z,7.82
2023-05-17T06:25:16.212Z,6.25
2023-05-17T06:27:43.754Z,6.05
2023-05-17T06:30:11.101Z,5.65
2023-05-17T06:32:40.709Z,6.25
2023-05-17T06:35:08.395Z,5.85
2023-05-17T06:37:35.196Z,6.75
2023-05-17T06:42:36.220Z,5.80
2023-05-17T06:45:03.376Z,6.18
2023-05-17T06:47:30.359Z,6.55
2023-05-17T06:49:57.194Z,5.50
2023-05-17T06:52:24.125Z,6.60
2023-05-17T06:54:50.981Z,5.43
2023-05-17T06:57:17.719Z,5.10
2023-05-17T06:59:44.548Z,7.00
2023-05-17T07:02:13.462Z,7.30
2023-05-17T07:04:40.389Z,5.55
2023-05-17T07:07:07.169Z,7.10
2023-05-17T07:09:33.929Z,6.40
2023-05-17T07:12:03.118Z,7.15
2023-05-17T07:14:29.886Z,6.18
2023-05-17T07:16:56.667Z,7.28
2023-05-17T07:19:23.630Z,7.40
2023-05-17T07:21:50.489Z,6.60
2023-05-17T07:24:17.320Z,6.38
2023-05-17T07:26:44.418Z,6.00
2023-05-17T07:29:11.952Z,6.03
2023-05-17T07:31:38.762Z,7.18
2023-05-17T07:34:05.894Z,6.43
2023-05-17T07:36:32.845Z,7.55
2023-05-17T07:38:59.699Z,6.13
2023-05-17T07:41:27.398Z,6.78
2023-05-17T07:43:54.121Z,6.15
2023-05-17T07:46:20.932Z,6.07
2023-05-17T07:48:47.781Z,6.30
2023-05-17T07:51:14.627Z,7.82
2023-05-17T07:53:41.387Z,8.32
2023-05-17T07:56:10.963Z,6.53
2023-05-17T07:58:37.737Z,7.07
2023-05-17T08:01:04.589Z,7.07
2023-05-17T08:03:31.419Z,5.88
2023-05-17T08:05:58.246Z,7.68
2023-05-17T08:08:27.738Z,7.15
2023-05-17T08:10:54.752Z,7.05
2023-05-17T08:13:21.710Z,7.90
2023-05-17T08:15:50.089Z,6.40
2023-05-17T08:18:18.517Z,6.20
2023-05-17T08:20:46.551Z,6.63
2023-05-17T08:23:15.931Z,6.10
2023-05-17T08:25:42.693Z,5.97
2023-05-17T08:28:09.435Z,6.65
2023-05-17T08:30:36.138Z,7.55
2023-05-17T08:33:03.125Z,6.68
2023-05-17T08:35:30.468Z,7.07
2023-05-17T08:37:57.657Z,7.53
2023-05-17T08:40:24.559Z,6.88
2023-05-17T08:42:51.437Z,7.55
2023-05-17T08:45:18.931Z,6.10
2023-05-17T08:47:46.511Z,8.27
2023-05-17T08:50:14.397Z,7.22
2023-05-17T08:52:44.078Z,7.05
2023-05-17T08:55:11.258Z,9.88
2023-05-17T08:57:38.819Z,7.70
2023-05-17T09:00:15.364Z,8.02
2023-05-17T09:02:42.932Z,7.60
2023-05-17T09:05:11.151Z,6.18
2023-05-17T09:07:38.089Z,5.63
2023-05-17T09:10:06.021Z,6.13
2023-05-17T09:12:36.321Z,6.35
2023-05-17T09:15:19.370Z,6.47
2023-05-17T09:17:53.249Z,6.68
2023-05-17T09:20:36.542Z,6.75
2023-05-17T09:23:04.394Z,5.57
2023-05-17T09:25:31.803Z,6.55
2023-05-17T09:28:07.703Z,6.63
2023-05-17T09:30:38.056Z,6.75
2023-05-17T09:33:12.426Z,7.15
2023-05-17T09:35:42.855Z,6.00
2023-05-17T09:38:11.394Z,5.78
2023-05-17T09:40:42.128Z,5.88
2023-05-17T09:43:09.108Z,5.53
2023-05-17T09:45:38.638Z,6.32
2023-05-17T09:48:18.371Z,6.35
2023-05-17T09:50:46.246Z,6.32
2023-05-17T09:53:32.592Z,6.43
2023-05-17T09:56:03.968Z,6.40
2023-05-17T09:58:32.100Z,5.53
2023-05-17T10:01:03.749Z,5.13
2023-05-17T10:03:34.325Z,6.15
2023-05-17T10:06:03.862Z,6.43
2023-05-17T10:08:30.995Z,5.20
2023-05-17T10:11:07.840Z,6.38
2023-05-17T10:13:37.221Z,6.05
2023-05-17T10:16:04.155Z,5.35
2023-05-17T10:18:31.934Z,4.82
2023-05-17T10:20:58.817Z,5.55
2023-05-17T10:23:25.627Z,5.85
2023-05-17T10:25:52.426Z,5.40
2023-05-17T10:28:19.135Z,5.63
2023-05-17T10:30:46.015Z,5.50
2023-05-17T10:33:13.252Z,4.72
2023-05-17T10:35:41.192Z,5.63
2023-05-17T10:38:08.091Z,6.78
2023-05-17T10:40:36.803Z,5.03
2023-05-17T10:43:03.662Z,6.10
2023-05-17T10:45:30.797Z,5.10
2023-05-17T10:47:58.875Z,5.43
2023-05-17T10:50:27.512Z,5.25
2023-05-17T10:52:56.367Z,5.28
2023-05-17T10:55:25.112Z,5.10
2023-05-17T10:58:11.431Z,5.20
2023-05-17T11:00:41.415Z,5.28
2023-05-17T11:03:26.649Z,6.22
2023-05-17T11:06:24.085Z,5.57
2023-05-17T11:09:16.394Z,4.70
2023-05-17T11:12:06.200Z,5.05
2023-05-17T11:14:45.474Z,5.75
2023-05-17T11:17:16.400Z,5.63
2023-05-17T11:19:52.743Z,4.50
2023-05-17T11:22:20.599Z,5.25
2023-05-17T11:24:47.398Z,5.70
2023-05-17T11:27:14.875Z,4.90
2023-05-17T11:29:42.504Z,5.38
2023-05-17T11:32:10.774Z,5.28
2023-05-17T11:34:38.323Z,4.97
2023-05-17T11:37:06.211Z,4.93
2023-05-17T11:39:33.061Z,4.82
2023-05-17T11:41:59.976Z,4.93
2023-05-17T11:44:30.890Z,5.28
2023-05-17T11:47:04.746Z,4.75
2023-05-17T11:49:36.340Z,5.40
2023-05-17T11:52:07.345Z,5.00
2023-05-17T11:54:34.667Z,5.18
2023-05-17T11:57:03.641Z,4.10
2023-05-17T11:59:35.008Z,4.93
2023-05-17T12:02:01.805Z,3.88
2023-05-17T12:04:29.702Z,3.63
2023-05-17T12:06:58.340Z,4.25
2023-05-17T12:09:26.443Z,3.78
2023-05-17T12:11:53.457Z,3.40
2023-05-17T12:14:22.919Z,4.03
2023-05-17T12:16:52.789Z,4.50
2023-05-17T12:19:21.027Z,4.75
2023-05-17T12:21:48.138Z,4.88
2023-05-17T12:24:14.979Z,5.07
2023-05-17T12:26:45.890Z,4.38
2023-05-17T12:29:14.062Z,4.32
2023-05-17T12:31:44.936Z,4.30
2023-05-17T12:34:15.527Z,4.03
2023-05-17T12:36:42.560Z,4.05
2023-05-17T12:39:13.102Z,5.47
2023-05-17T12:41:40.132Z,3.83
2023-05-17T12:46:40.049Z,5.57
2023-05-17T12:49:08.487Z,4.50
2023-05-17T12:51:43.154Z,3.88
2023-05-17T12:54:10.154Z,4.57
2023-05-17T12:56:37.028Z,4.43
2023-05-17T12:59:04.789Z,4.82
2023-05-17T13:01:44.237Z,4.28
2023-05-17T13:04:11.394Z,4.70
2023-05-17T13:06:57.884Z,4.82
2023-05-17T13:09:26.401Z,4.20
2023-05-17T13:11:54.482Z,4.10
2023-05-17T13:14:44.420Z,3.78
2023-05-17T13:17:15.171Z,4.60
2023-05-17T13:19:42.245Z,5.03
2023-05-17T13:22:09.169Z,4.57
2023-05-17T13:24:36.959Z,4.47
2023-05-17T13:27:04.165Z,4.93
2023-05-17T13:29:38.962Z,4.32
2023-05-17T13:32:08.040Z,4.18
2023-05-17T13:34:35.727Z,3.75
2023-05-17T13:37:02.616Z,4.50
2023-05-17T13:39:29.396Z,4.50
2023-05-17T13:41:56.159Z,4.45
2023-05-17T13:44:23.205Z,5.43
2023-05-17T13:46:50.128Z,4.63
2023-05-17T13:49:17.278Z,4.35
2023-05-17T13:51:45.021Z,4.25
2023-05-17T13:54:11.904Z,4.40
2023-05-17T13:56:38.728Z,4.68
2023-05-17T13:59:05.557Z,4.82
2023-05-17T14:01:32.297Z,4.35
2023-05-17T14:06:27.655Z,4.53
2023-05-17T14:08:55.423Z,4.55
2023-05-17T14:11:22.592Z,4.22
2023-05-17T14:13:49.510Z,5.07
2023-05-17T14:16:16.451Z,4.78
2023-05-17T14:18:43.394Z,5.10
2023-05-17T14:21:10.494Z,5.13
2023-05-17T14:23:37.850Z,4.75
2023-05-17T14:26:07.346Z,4.68
2023-05-17T14:28:37.720Z,4.90
2023-05-17T14:31:06.396Z,3.85
2023-05-17T14:33:33.364Z,5.00
2023-05-17T14:36:00.167Z,3.60
2023-05-17T14:38:26.965Z,4.60
2023-05-17T14:40:53.805Z,4.75
2023-05-17T14:43:20.973Z,4.40
2023-05-17T14:45:47.784Z,4.32
2023-05-17T14:48:14.742Z,4.93
2023-05-17T14:50:41.593Z,4.70
2023-05-17T14:53:08.434Z,4.03
2023-05-17T14:55:35.540Z,4.20
2023-05-17T14:58:03.378Z,3.80
2023-05-17T15:00:30.212Z,4.93
2023-05-17T15:02:57.118Z,4.78
2023-05-17T15:05:24.446Z,5.88
2023-05-17T15:07:51.340Z,4.65
2023-05-17T15:10:18.202Z,4.80
2023-05-17T15:12:45.004Z,4.75
2023-05-17T15:15:12.490Z,4.78
2023-05-17T15:17:39.334Z,5.07
2023-05-17T15:20:07.456Z,4.75
2023-05-17T15:22:34.280Z,4.63
2023-05-17T15:25:01.270Z,6.18
2023-05-17T15:27:28.077Z,5.07
2023-05-17T15:29:54.986Z,5.38
2023-05-17T15:32:21.870Z,6.05
2023-05-17T15:34:48.812Z,4.95
2023-05-17T15:37:15.555Z,5.65
2023-05-17T15:39:42.468Z,4.90
2023-05-17T15:42:09.215Z,5.90
2023-05-17T15:44:36.107Z,4.35
2023-05-17T15:47:03.460Z,5.38
2023-05-17T15:49:30.557Z,5.43
2023-05-17T15:51:57.359Z,5.63
2023-05-17T15:54:24.174Z,6.47
2023-05-17T15:56:51.054Z,5.25
2023-05-17T15:59:18.026Z,6.70
2023-05-17T16:01:46.345Z,5.55
2023-05-17T16:04:13.656Z,5.88
2023-05-17T16:06:41.192Z,6.00
2023-05-17T16:09:08.502Z,5.68
2023-05-17T16:11:35.208Z,5.75
2023-05-17T16:14:02.028Z,5.80
2023-05-17T16:16:28.762Z,5.72
2023-05-17T16:18:55.913Z,6.53
2023-05-17T16:21:22.823Z,6.35
2023-05-17T16:23:49.587Z,5.68
2023-05-17T16:26:16.306Z,5.72
2023-05-17T16:28:43.054Z,6.72
2023-05-17T16:31:10.145Z,6.22
2023-05-17T16:33:37.310Z,5.53
2023-05-17T16:36:05.035Z,7.05
2023-05-17T16:38:31.999Z,5.82
2023-05-17T16:41:03.136Z,6.47
2023-05-17T16:43:30.973Z,5.63
2023-05-17T16:45:57.761Z,8.27
2023-05-17T16:48:24.647Z,6.63
2023-05-17T16:50:51.641Z,6.57
2023-05-17T16:53:18.648Z,6.93
2023-05-17T16:55:45.707Z,6.50
2023-05-17T16:58:13.068Z,7.00
2023-05-17T17:00:39.930Z,6.53
2023-05-17T17:03:09.634Z,7.55
2023-05-17T17:05:37.049Z,9.43
2023-05-17T17:08:03.806Z,6.55
2023-05-17T17:10:31.021Z,5.90
2023-05-17T17:12:58.225Z,7.15
2023-05-17T17:15:25.446Z,6.68
2023-05-17T17:17:52.331Z,7.07
2023-05-17T17:20:19.752Z,6.78
2023-05-17T17:22:46.923Z,5.88
2023-05-17T17:25:13.778Z,6.05
2023-05-17T17:27:40.743Z,6.18
2023-05-17T17:30:08.099Z,6.10
2023-05-17T17:32:35.058Z,6.13
2023-05-17T17:35:02.085Z,5.18
2023-05-17T17:37:28.978Z,6.45
2023-05-17T17:39:55.889Z,7.07
2023-05-17T17:42:22.723Z,5.97
2023-05-17T17:44:49.503Z,5.53
2023-05-17T17:47:16.325Z,6.00
2023-05-17T17:49:43.160Z,5.10
2023-05-17T17:52:09.961Z,5.20
2023-05-17T17:54:36.704Z,6.25
2023-05-17T17:57:03.866Z,5.47
2023-05-17T17:59:30.790Z,5.68
2023-05-17T18:02:04.027Z,6.13
2023-05-17T18:04:30.876Z,5.20
2023-05-17T18:06:57.632Z,8.63
2023-05-17T18:09:24.450Z,4.75
2023-05-17T18:11:51.335Z,4.65
2023-05-17T18:14:18.073Z,5.32
2023-05-17T18:16:45.177Z,4.95
2023-05-17T18:19:15.096Z,5.05
2023-05-17T18:21:41.876Z,4.90
2023-05-17T18:24:09.009Z,5.18
2023-05-17T18:26:35.799Z,4.65
2023-05-17T18:29:02.532Z,4.95
2023-05-17T18:31:29.287Z,4.80
2023-05-17T18:33:57.313Z,5.70
2023-05-17T18:36:24.303Z,4.85
2023-05-17T18:38:52.531Z,5.25
2023-05-17T18:41:19.305Z,4.15
2023-05-17T18:43:46.049Z,5.00
2023-05-17T18:46:13.072Z,3.90
2023-05-17T18:48:40.825Z,4.75
2023-05-17T18:51:07.802Z,4.72
2023-05-17T18:53:36.179Z,4.00
2023-05-17T18:56:03.002Z,3.63
2023-05-17T18:58:29.958Z,4.60
2023-05-17T19:00:56.807Z,4.15
2023-05-17T19:03:23.708Z,4.32
2023-05-17T19:05:50.649Z,3.97
2023-05-17T19:08:17.427Z,3.55
2023-05-17T19:10:44.283Z,3.65
2023-05-17T19:13:12.778Z,3.20
2023-05-17T19:15:41.675Z,3.45
2023-05-17T19:18:11.396Z,2.95
2023-05-17T19:20:38.454Z,5.88
2023-05-17T19:23:06.007Z,3.47
2023-05-17T19:25:32.726Z,3.22
2023-05-17T19:27:59.865Z,3.20
2023-05-17T19:30:26.839Z,3.80
2023-05-17T19:32:53.811Z,4.05
2023-05-17T19:35:20.702Z,5.30
2023-05-17T19:37:47.521Z,3.13
2023-05-17T19:40:15.055Z,2.97
2023-05-17T19:42:41.877Z,3.42
2023-05-17T19:45:12.063Z,4.28
2023-05-17T19:47:38.913Z,3.67
2023-05-17T19:50:06.428Z,4.20
2023-05-17T19:52:33.351Z,3.83
2023-05-17T19:55:00.159Z,3.13
2023-05-17T19:57:27.292Z,3.13
2023-05-17T19:59:54.111Z,3.85
2023-05-17T20:02:21.085Z,3.45
2023-05-17T20:04:48.015Z,3.60
2023-05-17T20:07:17.558Z,3.25
2023-05-17T20:09:44.380Z,5.00
2023-05-17T20:12:11.266Z,3.50
2023-05-17T20:14:38.223Z,2.85
2023-05-17T20:17:05.034Z,3.67
2023-05-17T20:19:32.941Z,3.30
2023-05-17T20:21:59.756Z,4.10
2023-05-17T20:24:29.442Z,4.88
2023-05-17T20:26:59.360Z,4.07
2023-05-17T20:29:26.269Z,3.38
2023-05-17T20:31:53.063Z,4.05
2023-05-17T20:34:20.086Z,4.72
2023-05-17T20:36:46.933Z,3.95
2023-05-17T20:39:15.232Z,3.97
2023-05-17T20:41:42.384Z,3.78
2023-05-17T20:44:09.208Z,3.85
2023-05-17T20:46:36.213Z,4.60
2023-05-17T20:49:03.109Z,5.00
2023-05-17T20:51:29.939Z,3.83
2023-05-17T20:53:56.789Z,6.15
2023-05-17T20:56:23.595Z,3.05
2023-05-17T20:58:50.543Z,4.13
2023-05-17T21:01:17.528Z,4.25
2023-05-17T21:03:44.514Z,3.47
2023-05-17T21:06:11.406Z,3.75
2023-05-17T21:08:38.520Z,4.45
2023-05-17T21:11:05.661Z,4.50
2023-05-17T21:13:32.483Z,3.33
2023-05-17T21:15:59.551Z,2.92
2023-05-17T21:18:26.529Z,3.55
2023-05-17T21:20:55.043Z,3.55
2023-05-17T21:23:21.979Z,3.53
2023-05-17T21:25:49.136Z,3.63
2023-05-17T21:28:16.039Z,3.72
2023-05-17T21:30:42.898Z,4.20
2023-05-17T21:33:09.792Z,4.55
2023-05-17T21:35:36.668Z,3.47
2023-05-17T21:38:03.526Z,3.65
2023-05-17T21:40:30.678Z,4.05
2023-05-17T21:42:58.058Z,3.85
2023-05-17T21:45:24.884Z,4.15
2023-05-17T21:47:54.787Z,3.90
2023-05-17T21:50:21.718Z,3.13
2023-05-17T21:52:48.450Z,3.58
2023-05-17T21:55:15.697Z,3.40
2023-05-17T21:57:42.489Z,4.07
2023-05-17T22:00:13.026Z,4.45
2023-05-17T22:02:42.822Z,3.50
2023-05-17T22:05:09.781Z,3.88
2023-05-17T22:07:36.602Z,4.00
2023-05-17T22:10:04.830Z,4.43
2023-05-17T22:12:35.004Z,2.90
2023-05-17T22:15:02.278Z,2.78
2023-05-17T22:17:42.614Z,2.90
2023-05-17T22:20:16.882Z,3.15
2023-05-17T22:22:44.056Z,3.75
2023-05-17T22:25:10.995Z,2.83
2023-05-17T22:27:37.780Z,3.35
2023-05-17T22:30:05.061Z,2.55
2023-05-17T22:32:32.031Z,2.97
2023-05-17T22:34:58.776Z,2.70
2023-05-17T22:37:25.553Z,3.28
2023-05-17T22:39:52.310Z,2.60
2023-05-17T22:42:19.031Z,3.35
2023-05-17T22:44:46.151Z,3.15
2023-05-17T22:47:14.888Z,3.20
2023-05-17T22:49:42.181Z,2.90
2023-05-17T22:52:11.202Z,3.25
2023-05-17T22:54:38.269Z,2.75
2023-05-17T22:57:05.478Z,3.22
2023-05-17T22:59:33.209Z,3.45
2023-05-17T23:02:00.932Z,3.20
2023-05-17T23:04:27.844Z,1.95
2023-05-17T23:06:54.720Z,2.42
2023-05-17T23:09:21.918Z,3.50
2023-05-17T23:11:49.982Z,2.50
2023-05-17T23:14:17.557Z,3.45
2023-05-17T23:16:44.391Z,2.67
2023-05-17T23:19:11.235Z,2.45
2023-05-17T23:21:39.646Z,2.53
2023-05-17T23:24:08.032Z,2.25
2023-05-17T23:26:35.141Z,2.42
2023-05-17T23:29:03.576Z,2.72
2023-05-17T23:31:30.456Z,2.10
2023-05-17T23:33:57.218Z,2.17
2023-05-17T23:36:23.971Z,2.30
2023-05-17T23:38:50.861Z,2.88
2023-05-17T23:41:19.611Z,2.95
2023-05-17T23:43:46.907Z,2.58
2023-05-17T23:46:13.796Z,3.38
2023-05-17T23:48:40.896Z,2.22
2023-05-17T23:51:08.159Z,2.20
2023-05-17T23:53:34.998Z,2.25
2023-05-17T23:56:01.954Z,2.05
2023-05-17T23:58:28.720Z,2.78
